Houn Maru — JG5489 — position and weather

sailwx.info

Track history (hours):
 
Tides and Currents Weather Stations Pressure Air Temp Water Temp Dewpoint Dewpoint Depression Visibility Wind Speed Wind Dir Waves Ship Positions

Houn Maru

Last reported at 2017-Oct-16 07:20 UTC. Time now 2017-Oct-17 09:35 UTC.
Position N 34°36' E 134°55'.

Length 91 m; draft 6 m.

Type: Tanker. MMSI: 431101172.

Date/timePositionNaut miles runAvg speedWind from/ knotsBaromVisibWave heightAir tempDewpointWater temp
2017-Oct-16 07:20N 34°36' E 134°55'513.3
2017-Oct-16 06:59N 34°37' E 135°01'612.2
2017-Oct-16 06:30N 34°33' E 135°06'611.9
2017-Oct-16 06:00N 34°28' E 135°09'510.4
2017-Oct-16 05:29N 34°24' E 135°13'2 0.3
2017-Oct-16 00:06N 34°25' E 135°14'0 2.8
2017-Oct-15 23:59N 34°25' E 135°14'3 5.5
2017-Oct-15 23:30N 34°26' E 135°11'611.2
2017-Oct-15 23:00N 34°28' E 135°17'4 8.4
2017-Oct-15 22:30N 34°31' E 135°21'0 0.2
2017-Oct-15 21:56N 34°31' E 135°21'0 0.0
2017-Oct-15 21:20N 34°31' E 135°21'0 0.0
2017-Oct-15 20:56N 34°31' E 135°21'0 0.0
2017-Oct-15 20:20N 34°31' E 135°21'0 0.0
2017-Oct-15 19:56N 34°31' E 135°21'0 0.0
2017-Oct-15 19:26N 34°31' E 135°21'0 0.0
2017-Oct-15 17:56N 34°31' E 135°21'0 0.0
2017-Oct-15 17:14N 34°31' E 135°21'0 0.0
2017-Oct-15 16:56N 34°31' E 135°21'0 0.0
2017-Oct-15 15:38N 34°31' E 135°21'0 0.0
2017-Oct-15 14:44N 34°31' E 135°21'0 0.0
2017-Oct-15 13:56N 34°31' E 135°21'0 0.0
2017-Oct-15 13:14N 34°31' E 135°21'0 0.0
2017-Oct-15 12:56N 34°31' E 135°21'0 0.0
2017-Oct-15 12:26N 34°31' E 135°21'0 0.0
2017-Oct-15 09:50N 34°31' E 135°21'0 0.0
2017-Oct-15 09:20N 34°31' E 135°21'0 0.7
2017-Oct-15 09:00N 34°31' E 135°21'4 8.2
2017-Oct-15 08:30N 34°33' E 135°25'0 0.0
2017-Oct-14 23:04N 34°33' E 135°26'0 0.1
2017-Oct-14 23:00N 34°33' E 135°26'3 5.8
2017-Oct-14 22:30N 34°33' E 135°22'2 0.6
2017-Oct-14 19:06N 34°31' E 135°21'0 0.0
2017-Oct-14 19:00N 34°31' E 135°21'0 0.0
2017-Oct-14 18:30N 34°31' E 135°21'0 0.0
2017-Oct-14 18:00N 34°31' E 135°21'0 0.0
2017-Oct-14 17:12N 34°31' E 135°21'0 0.0
2017-Oct-14 13:36N 34°31' E 135°21'0 0.0
2017-Oct-14 13:12N 34°31' E 135°21'0 0.0
2017-Oct-14 13:00N 34°31' E 135°21'0 0.0
2017-Oct-14 12:30N 34°31' E 135°21'0 0.0
2017-Oct-14 11:54N 34°31' E 135°21'0 0.0
2017-Oct-14 11:24N 34°31' E 135°21'0 0.0
2017-Oct-14 09:42N 34°31' E 135°21'0 0.0
2017-Oct-14 09:06N 34°31' E 135°21'0 0.0
2017-Oct-14 09:00N 34°31' E 135°21'0 0.0
2017-Oct-14 06:48N 34°31' E 135°21'0 0.1
2017-Oct-14 06:30N 34°31' E 135°21'5 9.5
2017-Oct-14 06:00N 34°29' E 135°16'611.0
2017-Oct-14 05:30N 34°25' E 135°11'3 0.5
2017-Oct-14 00:02N 34°25' E 135°14'0 4.1
2017-Oct-14 00:00N 34°25' E 135°14'3 5.8
2017-Oct-13 23:30N 34°25' E 135°11'611.5
2017-Oct-13 23:00N 34°29' E 135°16'5 9.3
2017-Oct-13 22:30N 34°31' E 135°21'0 0.1
2017-Oct-13 20:42N 34°31' E 135°21'0 0.0
2017-Oct-13 20:12N 34°31' E 135°21'0 0.1
2017-Oct-13 20:00N 34°31' E 135°21'0 0.0
2017-Oct-13 19:30N 34°31' E 135°21'0 0.0
2017-Oct-13 19:00N 34°31' E 135°21'0 0.0
2017-Oct-13 18:18N 34°31' E 135°21'0 0.0
2017-Oct-13 17:48N 34°31' E 135°21'0 0.0
2017-Oct-13 17:24N 34°31' E 135°21'0 0.0
2017-Oct-13 17:00N 34°31' E 135°21'0 0.0
2017-Oct-13 15:54N 34°31' E 135°21'0 0.0
2017-Oct-13 14:24N 34°31' E 135°21'0 0.0
2017-Oct-13 14:00N 34°31' E 135°21'0 0.0
2017-Oct-13 13:18N 34°31' E 135°21'0 0.0
2017-Oct-13 12:54N 34°31' E 135°21'0 0.2
2017-Oct-13 12:30N 34°31' E 135°21'2 4.7
2017-Oct-13 11:59N 34°33' E 135°23'2 0.2
2017-Oct-12 23:30N 34°33' E 135°26'3 5.3
2017-Oct-12 23:00N 34°33' E 135°22'2 3.3
2017-Oct-12 22:25N 34°31' E 135°21'0 0.0
2017-Oct-12 21:07N 34°31' E 135°21'0 0.0
2017-Oct-12 20:55N 34°31' E 135°21'0 0.0
2017-Oct-12 19:07N 34°31' E 135°21'0 0.0
2017-Oct-12 18:55N 34°31' E 135°21'0 0.0
2017-Oct-12 18:25N 34°31' E 135°21'0 0.0
2017-Oct-12 17:49N 34°31' E 135°21'0 0.0
2017-Oct-12 17:19N 34°31' E 135°21'0 0.0
2017-Oct-12 16:49N 34°31' E 135°21'0 0.0
2017-Oct-12 16:13N 34°31' E 135°21'0 0.0
2017-Oct-12 15:43N 34°31' E 135°21'0 0.0
2017-Oct-12 15:19N 34°31' E 135°21'0 0.0
2017-Oct-12 14:55N 34°31' E 135°21'0 0.0
2017-Oct-12 14:19N 34°31' E 135°21'0 0.0
2017-Oct-12 12:43N 34°31' E 135°21'0 0.0
2017-Oct-12 11:55N 34°31' E 135°21'0 0.0
2017-Oct-12 06:55N 34°31' E 135°21'1 1.9
2017-Oct-12 06:30N 34°31' E 135°20'510.5
2017-Oct-12 06:00N 34°28' E 135°15'4 8.9
2017-Oct-12 05:30N 34°24' E 135°12'2 0.4
2017-Oct-12 00:15N 34°25' E 135°14'0 1.4
2017-Oct-11 23:59N 34°25' E 135°14'3 5.5
2017-Oct-11 23:29N 34°26' E 135°11'511.4
2017-Oct-11 23:00N 34°29' E 135°16'5 9.0
2017-Oct-11 22:30N 34°31' E 135°21'0 0.1
2017-Oct-11 21:39N 34°31' E 135°21'0 0.0
2017-Oct-11 21:21N 34°31' E 135°21'0 0.0
2017-Oct-11 20:57N 34°31' E 135°21'0 0.0
2017-Oct-11 20:03N 34°31' E 135°21'0 0.0
2017-Oct-11 19:45N 34°31' E 135°21'0 0.1
2017-Oct-11 19:21N 34°31' E 135°21'0 0.1
2017-Oct-11 18:57N 34°31' E 135°21'0 0.1
2017-Oct-11 18:27N 34°31' E 135°21'0 0.1
2017-Oct-11 17:39N 34°31' E 135°21'0 0.1
2017-Oct-11 17:27N 34°31' E 135°21'4 0.2
2017-Oct-10 22:31N 34°33' E 135°26'0 0.8
2017-Oct-10 22:28N 34°33' E 135°26'3 5.7
2017-Oct-10 22:00N 34°33' E 135°22'2 2.0
2017-Oct-10 20:59N 34°31' E 135°21'0 0.0
2017-Oct-10 20:29N 34°31' E 135°21'0 0.0
2017-Oct-10 19:59N 34°31' E 135°21'0 0.1
2017-Oct-10 19:17N 34°31' E 135°21'0 0.0
2017-Oct-10 15:23N 34°31' E 135°21'0 0.0
2017-Oct-10 13:59N 34°31' E 135°21'0 0.0
2017-Oct-10 13:17N 34°31' E 135°21'0 0.0
2017-Oct-10 12:59N 34°31' E 135°21'0 0.1
2017-Oct-10 12:29N 34°31' E 135°21'0 0.0
2017-Oct-10 11:47N 34°31' E 135°21'0 0.0
2017-Oct-10 11:23N 34°31' E 135°21'0 0.0
2017-Oct-10 10:59N 34°31' E 135°21'0 0.0
2017-Oct-10 10:29N 34°31' E 135°21'0 0.0
2017-Oct-10 09:59N 34°31' E 135°21'0 0.0
2017-Oct-10 08:35N 34°31' E 135°21'0 0.1
2017-Oct-10 06:40N 34°31' E 135°21'2 7.6
2017-Oct-10 06:28N 34°30' E 135°19'612.1
2017-Oct-10 06:00N 34°27' E 135°13'4 7.7
2017-Oct-10 05:30N 34°23' E 135°12'2 0.4
2017-Oct-10 00:05N 34°25' E 135°14'0 5.2
2017-Oct-10 00:00N 34°25' E 135°14'3 6.0
2017-Oct-09 23:30N 34°26' E 135°11'611.0
2017-Oct-09 22:59N 34°29' E 135°17'4 8.6
2017-Oct-09 22:30N 34°31' E 135°21'0 0.2
2017-Oct-09 21:46N 34°31' E 135°21'0 0.0
2017-Oct-09 20:28N 34°31' E 135°21'0 0.0
2017-Oct-09 19:40N 34°31' E 135°21'0 0.0
2017-Oct-09 19:28N 34°31' E 135°21'0 0.0
2017-Oct-09 18:46N 34°31' E 135°21'0 0.0
2017-Oct-09 17:16N 34°31' E 135°21'0 0.0
2017-Oct-09 16:34N 34°31' E 135°21'0 0.1
2017-Oct-09 16:28N 34°31' E 135°21'0 0.0
2017-Oct-09 14:46N 34°31' E 135°21'0 0.0
2017-Oct-09 14:28N 34°31' E 135°21'0 0.1
2017-Oct-09 13:58N 34°31' E 135°21'0 0.0
2017-Oct-09 13:28N 34°31' E 135°21'0 0.0
2017-Oct-09 12:58N 34°31' E 135°21'0 0.0
2017-Oct-09 12:04N 34°31' E 135°21'0 0.1
2017-Oct-09 11:58N 34°31' E 135°21'0 0.0
2017-Oct-09 11:16N 34°31' E 135°21'0 0.0
2017-Oct-09 10:58N 34°31' E 135°21'0 0.1
2017-Oct-09 10:10N 34°31' E 135°21'0 0.0
2017-Oct-09 09:46N 34°31' E 135°21'0 0.0
2017-Oct-09 08:58N 34°31' E 135°21'0 0.7
2017-Oct-09 08:30N 34°31' E 135°21'4 7.8
2017-Oct-09 07:59N 34°33' E 135°25'0 0.0
2017-Oct-08 23:02N 34°33' E 135°26'0 1.8
2017-Oct-08 23:00N 34°33' E 135°26'3 5.8
2017-Oct-08 22:30N 34°33' E 135°22'2 1.7
2017-Oct-08 21:28N 34°31' E 135°21'0 0.0
2017-Oct-08 20:58N 34°31' E 135°21'0 0.0
2017-Oct-08 20:28N 34°31' E 135°21'0 0.0
2017-Oct-08 17:10N 34°31' E 135°21'0 0.2
2017-Oct-08 16:58N 34°31' E 135°21'0 0.1
2017-Oct-08 16:22N 34°31' E 135°21'0 0.0
2017-Oct-08 15:22N 34°31' E 135°21'0 0.1
2017-Oct-08 14:58N 34°31' E 135°21'0 0.1
2017-Oct-08 14:16N 34°31' E 135°21'0 0.1
2017-Oct-08 13:52N 34°31' E 135°21'0 0.0
2017-Oct-08 13:28N 34°31' E 135°21'0 0.0
2017-Oct-08 12:28N 34°31' E 135°21'0 0.1
2017-Oct-08 11:58N 34°31' E 135°21'0 0.0
2017-Oct-08 11:28N 34°31' E 135°21'0 0.0
2017-Oct-08 09:52N 34°31' E 135°21'0 0.0
2017-Oct-08 09:28N 34°31' E 135°21'0 0.1
2017-Oct-08 08:28N 34°31' E 135°21'0 0.0
2017-Oct-08 07:58N 34°31' E 135°21'0 0.0
2017-Oct-08 07:22N 34°31' E 135°21'2 6.6
2017-Oct-08 07:00N 34°33' E 135°19'612.3
2017-Oct-08 06:31N 34°37' E 135°13'4 8.1
2017-Oct-08 06:00N 34°41' E 135°12'0 0.6
2017-Oct-08 05:25N 34°41' E 135°12'0 0.0
2017-Oct-08 04:55N 34°41' E 135°12'0 0.0
2017-Oct-08 04:25N 34°41' E 135°12'0 0.0
2017-Oct-08 03:43N 34°41' E 135°12'0 0.0
2017-Oct-08 03:25N 34°41' E 135°12'0 0.0
2017-Oct-08 02:49N 34°41' E 135°12'0 0.0
2017-Oct-08 02:25N 34°41' E 135°12'0 0.0
2017-Oct-08 01:55N 34°41' E 135°12'0 0.0
2017-Oct-08 01:25N 34°41' E 135°12'0 0.0
2017-Oct-08 00:55N 34°41' E 135°12'0 0.0
2017-Oct-08 00:25N 34°41' E 135°12'0 0.0
2017-Oct-07 23:55N 34°41' E 135°12'0 0.0
2017-Oct-07 23:25N 34°41' E 135°12'0 0.0
2017-Oct-07 22:55N 34°41' E 135°12'0 0.0
2017-Oct-07 22:25N 34°41' E 135°12'0 0.0
2017-Oct-07 21:55N 34°41' E 135°12'0 0.0
2017-Oct-07 21:25N 34°41' E 135°12'0 0.0
2017-Oct-07 20:55N 34°41' E 135°12'0 0.0
2017-Oct-07 20:19N 34°41' E 135°12'0 0.0
2017-Oct-07 19:55N 34°41' E 135°12'0 0.0
2017-Oct-07 19:25N 34°41' E 135°12'0 0.0
2017-Oct-07 18:43N 34°41' E 135°12'0 0.0
2017-Oct-07 18:25N 34°41' E 135°12'0 0.0
2017-Oct-07 17:55N 34°41' E 135°12'0 0.0
2017-Oct-07 17:25N 34°41' E 135°12'0 0.0
2017-Oct-07 16:55N 34°41' E 135°12'0 0.0
2017-Oct-07 16:25N 34°41' E 135°12'0 0.0
2017-Oct-07 15:55N 34°41' E 135°12'0 0.0
2017-Oct-07 15:25N 34°41' E 135°12'0 0.0
2017-Oct-07 14:55N 34°41' E 135°12'0 0.0
2017-Oct-07 14:25N 34°41' E 135°12'0 0.0
2017-Oct-07 13:55N 34°41' E 135°12'0 0.0
2017-Oct-07 13:25N 34°41' E 135°12'0 0.0
2017-Oct-07 12:55N 34°41' E 135°12'0 0.0
2017-Oct-07 12:25N 34°41' E 135°12'0 0.0
2017-Oct-07 11:55N 34°41' E 135°12'0 0.0
2017-Oct-07 11:25N 34°41' E 135°12'0 0.0
2017-Oct-07 10:55N 34°41' E 135°12'0 0.0
2017-Oct-07 10:19N 34°41' E 135°12'0 0.0
2017-Oct-07 09:55N 34°41' E 135°12'0 0.0
2017-Oct-07 09:25N 34°41' E 135°12'0 0.0
2017-Oct-07 08:55N 34°41' E 135°12'0 0.0
2017-Oct-07 08:19N 34°41' E 135°12'0 0.0
2017-Oct-07 07:55N 34°41' E 135°12'0 0.0
2017-Oct-07 07:01N 34°41' E 135°12'0 0.0
2017-Oct-07 06:55N 34°41' E 135°12'0 0.0
2017-Oct-07 06:19N 34°41' E 135°12'0 0.0
2017-Oct-07 05:55N 34°41' E 135°12'0 0.0
2017-Oct-07 05:19N 34°41' E 135°12'0 0.0
2017-Oct-07 04:43N 34°41' E 135°12'0 0.0
2017-Oct-07 04:25N 34°41' E 135°12'0 0.0
2017-Oct-07 03:55N 34°41' E 135°12'0 0.0
2017-Oct-07 03:25N 34°41' E 135°12'0 0.0
2017-Oct-07 02:55N 34°41' E 135°12'0 0.0
2017-Oct-07 02:25N 34°41' E 135°12'0 0.0
2017-Oct-07 01:55N 34°41' E 135°12'0 0.0
2017-Oct-07 01:19N 34°41' E 135°12'0 0.0
2017-Oct-07 00:55N 34°41' E 135°12'0 0.0
2017-Oct-07 00:25N 34°41' E 135°12'0 0.0
2017-Oct-06 23:55N 34°41' E 135°12'0 0.0
2017-Oct-06 23:25N 34°41' E 135°12'0 0.0
2017-Oct-06 22:55N 34°41' E 135°12'0 0.0
2017-Oct-06 22:19N 34°41' E 135°12'0 0.0
2017-Oct-06 21:49N 34°41' E 135°12'0 0.0
2017-Oct-06 21:19N 34°41' E 135°12'0 0.0
2017-Oct-06 20:49N 34°41' E 135°12'0 0.0
2017-Oct-06 20:25N 34°41' E 135°12'0 0.0
2017-Oct-06 19:55N 34°41' E 135°12'0 0.0
2017-Oct-06 19:25N 34°41' E 135°12'0 0.0
2017-Oct-06 18:55N 34°41' E 135°12'0 0.0
2017-Oct-06 18:25N 34°41' E 135°12'0 0.0
2017-Oct-06 17:49N 34°41' E 135°12'0 0.0
2017-Oct-06 17:25N 34°41' E 135°12'0 0.0
2017-Oct-06 16:55N 34°41' E 135°12'0 0.0
2017-Oct-06 16:28N 34°41' E 135°12'0 0.0
2017-Oct-06 15:58N 34°41' E 135°12'0 0.0
2017-Oct-06 15:28N 34°41' E 135°12'0 0.0
2017-Oct-06 14:58N 34°41' E 135°12'0 0.0
2017-Oct-06 14:28N 34°41' E 135°12'0 0.0
2017-Oct-06 13:58N 34°41' E 135°12'0 0.0
2017-Oct-06 13:22N 34°41' E 135°12'0 0.0
2017-Oct-06 12:52N 34°41' E 135°12'0 0.0
2017-Oct-06 12:28N 34°41' E 135°12'0 0.0
2017-Oct-06 11:58N 34°41' E 135°12'0 0.0
2017-Oct-06 11:28N 34°41' E 135°12'0 0.0
2017-Oct-06 10:58N 34°41' E 135°12'0 0.0
2017-Oct-06 10:28N 34°41' E 135°12'0 0.0
2017-Oct-06 09:58N 34°41' E 135°12'0 0.0
2017-Oct-06 09:28N 34°41' E 135°12'0 0.0
2017-Oct-06 08:58N 34°41' E 135°12'1 3.2
2017-Oct-06 08:31N 34°40' E 135°12'510.8
2017-Oct-06 08:01N 34°34' E 135°11'510.1
2017-Oct-06 07:31N 34°29' E 135°10'  
Track history (hours):
 
Tides and Currents Weather Stations Pressure Air Temp Water Temp Dewpoint Dewpoint Depression Visibility Wind Speed Wind Dir Waves Ship Positions

Houn Maru

Last reported at 2017-Oct-16 07:20 UTC. Time now 2017-Oct-17 09:35 UTC.
Position N 34°36' E 134°55'.

Length 91 m; draft 6 m.

Type: Tanker. MMSI: 431101172.

Date/timePositionNaut miles runAvg speedWind from/ knotsBaromVisibWave heightAir tempDewpointWater temp
2017-Oct-16 07:20N 34°36' E 134°55'513.3
2017-Oct-16 06:59N 34°37' E 135°01'612.2
2017-Oct-16 06:30N 34°33' E 135°06'611.9
2017-Oct-16 06:00N 34°28' E 135°09'510.4
2017-Oct-16 05:29N 34°24' E 135°13'2 0.3
2017-Oct-16 00:06N 34°25' E 135°14'0 2.8
2017-Oct-15 23:59N 34°25' E 135°14'3 5.5
2017-Oct-15 23:30N 34°26' E 135°11'611.2
2017-Oct-15 23:00N 34°28' E 135°17'4 8.4
2017-Oct-15 22:30N 34°31' E 135°21'0 0.2
2017-Oct-15 21:56N 34°31' E 135°21'0 0.0
2017-Oct-15 21:20N 34°31' E 135°21'0 0.0
2017-Oct-15 20:56N 34°31' E 135°21'0 0.0
2017-Oct-15 20:20N 34°31' E 135°21'0 0.0
2017-Oct-15 19:56N 34°31' E 135°21'0 0.0
2017-Oct-15 19:26N 34°31' E 135°21'0 0.0
2017-Oct-15 17:56N 34°31' E 135°21'0 0.0
2017-Oct-15 17:14N 34°31' E 135°21'0 0.0
2017-Oct-15 16:56N 34°31' E 135°21'0 0.0
2017-Oct-15 15:38N 34°31' E 135°21'0 0.0
2017-Oct-15 14:44N 34°31' E 135°21'0 0.0
2017-Oct-15 13:56N 34°31' E 135°21'0 0.0
2017-Oct-15 13:14N 34°31' E 135°21'0 0.0
2017-Oct-15 12:56N 34°31' E 135°21'0 0.0
2017-Oct-15 12:26N 34°31' E 135°21'0 0.0
2017-Oct-15 09:50N 34°31' E 135°21'0 0.0
2017-Oct-15 09:20N 34°31' E 135°21'0 0.7
2017-Oct-15 09:00N 34°31' E 135°21'4 8.2
2017-Oct-15 08:30N 34°33' E 135°25'0 0.0
2017-Oct-14 23:04N 34°33' E 135°26'0 0.1
2017-Oct-14 23:00N 34°33' E 135°26'3 5.8
2017-Oct-14 22:30N 34°33' E 135°22'2 0.6
2017-Oct-14 19:06N 34°31' E 135°21'0 0.0
2017-Oct-14 19:00N 34°31' E 135°21'0 0.0
2017-Oct-14 18:30N 34°31' E 135°21'0 0.0
2017-Oct-14 18:00N 34°31' E 135°21'0 0.0
2017-Oct-14 17:12N 34°31' E 135°21'0 0.0
2017-Oct-14 13:36N 34°31' E 135°21'0 0.0
2017-Oct-14 13:12N 34°31' E 135°21'0 0.0
2017-Oct-14 13:00N 34°31' E 135°21'0 0.0
2017-Oct-14 12:30N 34°31' E 135°21'0 0.0
2017-Oct-14 11:54N 34°31' E 135°21'0 0.0
2017-Oct-14 11:24N 34°31' E 135°21'0 0.0
2017-Oct-14 09:42N 34°31' E 135°21'0 0.0
2017-Oct-14 09:06N 34°31' E 135°21'0 0.0
2017-Oct-14 09:00N 34°31' E 135°21'0 0.0
2017-Oct-14 06:48N 34°31' E 135°21'0 0.1
2017-Oct-14 06:30N 34°31' E 135°21'5 9.5
2017-Oct-14 06:00N 34°29' E 135°16'611.0
2017-Oct-14 05:30N 34°25' E 135°11'3 0.5
2017-Oct-14 00:02N 34°25' E 135°14'0 4.1
2017-Oct-14 00:00N 34°25' E 135°14'3 5.8
2017-Oct-13 23:30N 34°25' E 135°11'611.5
2017-Oct-13 23:00N 34°29' E 135°16'5 9.3
2017-Oct-13 22:30N 34°31' E 135°21'0 0.1
2017-Oct-13 20:42N 34°31' E 135°21'0 0.0
2017-Oct-13 20:12N 34°31' E 135°21'0 0.1
2017-Oct-13 20:00N 34°31' E 135°21'0 0.0
2017-Oct-13 19:30N 34°31' E 135°21'0 0.0
2017-Oct-13 19:00N 34°31' E 135°21'0 0.0
2017-Oct-13 18:18N 34°31' E 135°21'0 0.0
2017-Oct-13 17:48N 34°31' E 135°21'0 0.0
2017-Oct-13 17:24N 34°31' E 135°21'0 0.0
2017-Oct-13 17:00N 34°31' E 135°21'0 0.0
2017-Oct-13 15:54N 34°31' E 135°21'0 0.0
2017-Oct-13 14:24N 34°31' E 135°21'0 0.0
2017-Oct-13 14:00N 34°31' E 135°21'0 0.0
2017-Oct-13 13:18N 34°31' E 135°21'0 0.0
2017-Oct-13 12:54N 34°31' E 135°21'0 0.2
2017-Oct-13 12:30N 34°31' E 135°21'2 4.7
2017-Oct-13 11:59N 34°33' E 135°23'2 0.2
2017-Oct-12 23:30N 34°33' E 135°26'3 5.3
2017-Oct-12 23:00N 34°33' E 135°22'2 3.3
2017-Oct-12 22:25N 34°31' E 135°21'0 0.0
2017-Oct-12 21:07N 34°31' E 135°21'0 0.0
2017-Oct-12 20:55N 34°31' E 135°21'0 0.0
2017-Oct-12 19:07N 34°31' E 135°21'0 0.0
2017-Oct-12 18:55N 34°31' E 135°21'0 0.0
2017-Oct-12 18:25N 34°31' E 135°21'0 0.0
2017-Oct-12 17:49N 34°31' E 135°21'0 0.0
2017-Oct-12 17:19N 34°31' E 135°21'0 0.0
2017-Oct-12 16:49N 34°31' E 135°21'0 0.0
2017-Oct-12 16:13N 34°31' E 135°21'0 0.0
2017-Oct-12 15:43N 34°31' E 135°21'0 0.0
2017-Oct-12 15:19N 34°31' E 135°21'0 0.0
2017-Oct-12 14:55N 34°31' E 135°21'0 0.0
2017-Oct-12 14:19N 34°31' E 135°21'0 0.0
2017-Oct-12 12:43N 34°31' E 135°21'0 0.0
2017-Oct-12 11:55N 34°31' E 135°21'0 0.0
2017-Oct-12 06:55N 34°31' E 135°21'1 1.9
2017-Oct-12 06:30N 34°31' E 135°20'510.5
2017-Oct-12 06:00N 34°28' E 135°15'4 8.9
2017-Oct-12 05:30N 34°24' E 135°12'2 0.4
2017-Oct-12 00:15N 34°25' E 135°14'0 1.4
2017-Oct-11 23:59N 34°25' E 135°14'3 5.5
2017-Oct-11 23:29N 34°26' E 135°11'511.4
2017-Oct-11 23:00N 34°29' E 135°16'5 9.0
2017-Oct-11 22:30N 34°31' E 135°21'0 0.1
2017-Oct-11 21:39N 34°31' E 135°21'0 0.0
2017-Oct-11 21:21N 34°31' E 135°21'0 0.0
2017-Oct-11 20:57N 34°31' E 135°21'0 0.0
2017-Oct-11 20:03N 34°31' E 135°21'0 0.0
2017-Oct-11 19:45N 34°31' E 135°21'0 0.1
2017-Oct-11 19:21N 34°31' E 135°21'0 0.1
2017-Oct-11 18:57N 34°31' E 135°21'0 0.1
2017-Oct-11 18:27N 34°31' E 135°21'0 0.1
2017-Oct-11 17:39N 34°31' E 135°21'0 0.1
2017-Oct-11 17:27N 34°31' E 135°21'4 0.2
2017-Oct-10 22:31N 34°33' E 135°26'0 0.8
2017-Oct-10 22:28N 34°33' E 135°26'3 5.7
2017-Oct-10 22:00N 34°33' E 135°22'2 2.0
2017-Oct-10 20:59N 34°31' E 135°21'0 0.0
2017-Oct-10 20:29N 34°31' E 135°21'0 0.0
2017-Oct-10 19:59N 34°31' E 135°21'0 0.1
2017-Oct-10 19:17N 34°31' E 135°21'0 0.0
2017-Oct-10 15:23N 34°31' E 135°21'0 0.0
2017-Oct-10 13:59N 34°31' E 135°21'0 0.0
2017-Oct-10 13:17N 34°31' E 135°21'0 0.0
2017-Oct-10 12:59N 34°31' E 135°21'0 0.1
2017-Oct-10 12:29N 34°31' E 135°21'0 0.0
2017-Oct-10 11:47N 34°31' E 135°21'0 0.0
2017-Oct-10 11:23N 34°31' E 135°21'0 0.0
2017-Oct-10 10:59N 34°31' E 135°21'0 0.0
2017-Oct-10 10:29N 34°31' E 135°21'0 0.0
2017-Oct-10 09:59N 34°31' E 135°21'0 0.0
2017-Oct-10 08:35N 34°31' E 135°21'0 0.1
2017-Oct-10 06:40N 34°31' E 135°21'2 7.6
2017-Oct-10 06:28N 34°30' E 135°19'612.1
2017-Oct-10 06:00N 34°27' E 135°13'4 7.7
2017-Oct-10 05:30N 34°23' E 135°12'2 0.4
2017-Oct-10 00:05N 34°25' E 135°14'0 5.2
2017-Oct-10 00:00N 34°25' E 135°14'3 6.0
2017-Oct-09 23:30N 34°26' E 135°11'611.0
2017-Oct-09 22:59N 34°29' E 135°17'4 8.6
2017-Oct-09 22:30N 34°31' E 135°21'0 0.2
2017-Oct-09 21:46N 34°31' E 135°21'0 0.0
2017-Oct-09 20:28N 34°31' E 135°21'0 0.0
2017-Oct-09 19:40N 34°31' E 135°21'0 0.0
2017-Oct-09 19:28N 34°31' E 135°21'0 0.0
2017-Oct-09 18:46N 34°31' E 135°21'0 0.0
2017-Oct-09 17:16N 34°31' E 135°21'0 0.0
2017-Oct-09 16:34N 34°31' E 135°21'0 0.1
2017-Oct-09 16:28N 34°31' E 135°21'0 0.0
2017-Oct-09 14:46N 34°31' E 135°21'0 0.0
2017-Oct-09 14:28N 34°31' E 135°21'0 0.1
2017-Oct-09 13:58N 34°31' E 135°21'0 0.0
2017-Oct-09 13:28N 34°31' E 135°21'0 0.0
2017-Oct-09 12:58N 34°31' E 135°21'0 0.0
2017-Oct-09 12:04N 34°31' E 135°21'0 0.1
2017-Oct-09 11:58N 34°31' E 135°21'0 0.0
2017-Oct-09 11:16N 34°31' E 135°21'0 0.0
2017-Oct-09 10:58N 34°31' E 135°21'0 0.1
2017-Oct-09 10:10N 34°31' E 135°21'0 0.0
2017-Oct-09 09:46N 34°31' E 135°21'0 0.0
2017-Oct-09 08:58N 34°31' E 135°21'0 0.7
2017-Oct-09 08:30N 34°31' E 135°21'4 7.8
2017-Oct-09 07:59N 34°33' E 135°25'0 0.0
2017-Oct-08 23:02N 34°33' E 135°26'0 1.8
2017-Oct-08 23:00N 34°33' E 135°26'3 5.8
2017-Oct-08 22:30N 34°33' E 135°22'2 1.7
2017-Oct-08 21:28N 34°31' E 135°21'0 0.0
2017-Oct-08 20:58N 34°31' E 135°21'0 0.0
2017-Oct-08 20:28N 34°31' E 135°21'0 0.0
2017-Oct-08 17:10N 34°31' E 135°21'0 0.2
2017-Oct-08 16:58N 34°31' E 135°21'0 0.1
2017-Oct-08 16:22N 34°31' E 135°21'0 0.0
2017-Oct-08 15:22N 34°31' E 135°21'0 0.1
2017-Oct-08 14:58N 34°31' E 135°21'0 0.1
2017-Oct-08 14:16N 34°31' E 135°21'0 0.1
2017-Oct-08 13:52N 34°31' E 135°21'0 0.0
2017-Oct-08 13:28N 34°31' E 135°21'0 0.0
2017-Oct-08 12:28N 34°31' E 135°21'0 0.1
2017-Oct-08 11:58N 34°31' E 135°21'0 0.0
2017-Oct-08 11:28N 34°31' E 135°21'0 0.0
2017-Oct-08 09:52N 34°31' E 135°21'0 0.0
2017-Oct-08 09:28N 34°31' E 135°21'0 0.1
2017-Oct-08 08:28N 34°31' E 135°21'0 0.0
2017-Oct-08 07:58N 34°31' E 135°21'0 0.0
2017-Oct-08 07:22N 34°31' E 135°21'2 6.6
2017-Oct-08 07:00N 34°33' E 135°19'612.3
2017-Oct-08 06:31N 34°37' E 135°13'4 8.1
2017-Oct-08 06:00N 34°41' E 135°12'0 0.6
2017-Oct-08 05:25N 34°41' E 135°12'0 0.0
2017-Oct-08 04:55N 34°41' E 135°12'0 0.0
2017-Oct-08 04:25N 34°41' E 135°12'0 0.0
2017-Oct-08 03:43N 34°41' E 135°12'0 0.0
2017-Oct-08 03:25N 34°41' E 135°12'0 0.0
2017-Oct-08 02:49N 34°41' E 135°12'0 0.0
2017-Oct-08 02:25N 34°41' E 135°12'0 0.0
2017-Oct-08 01:55N 34°41' E 135°12'0 0.0
2017-Oct-08 01:25N 34°41' E 135°12'0 0.0
2017-Oct-08 00:55N 34°41' E 135°12'0 0.0
2017-Oct-08 00:25N 34°41' E 135°12'0 0.0
2017-Oct-07 23:55N 34°41' E 135°12'0 0.0
2017-Oct-07 23:25N 34°41' E 135°12'0 0.0
2017-Oct-07 22:55N 34°41' E 135°12'0 0.0
2017-Oct-07 22:25N 34°41' E 135°12'0 0.0
2017-Oct-07 21:55N 34°41' E 135°12'0 0.0
2017-Oct-07 21:25N 34°41' E 135°12'0 0.0
2017-Oct-07 20:55N 34°41' E 135°12'0 0.0
2017-Oct-07 20:19N 34°41' E 135°12'0 0.0
2017-Oct-07 19:55N 34°41' E 135°12'0 0.0
2017-Oct-07 19:25N 34°41' E 135°12'0 0.0
2017-Oct-07 18:43N 34°41' E 135°12'0 0.0
2017-Oct-07 18:25N 34°41' E 135°12'0 0.0
2017-Oct-07 17:55N 34°41' E 135°12'0 0.0
2017-Oct-07 17:25N 34°41' E 135°12'0 0.0
2017-Oct-07 16:55N 34°41' E 135°12'0 0.0
2017-Oct-07 16:25N 34°41' E 135°12'0 0.0
2017-Oct-07 15:55N 34°41' E 135°12'0 0.0
2017-Oct-07 15:25N 34°41' E 135°12'0 0.0
2017-Oct-07 14:55N 34°41' E 135°12'0 0.0
2017-Oct-07 14:25N 34°41' E 135°12'0 0.0
2017-Oct-07 13:55N 34°41' E 135°12'0 0.0
2017-Oct-07 13:25N 34°41' E 135°12'0 0.0
2017-Oct-07 12:55N 34°41' E 135°12'0 0.0
2017-Oct-07 12:25N 34°41' E 135°12'0 0.0
2017-Oct-07 11:55N 34°41' E 135°12'0 0.0
2017-Oct-07 11:25N 34°41' E 135°12'0 0.0
2017-Oct-07 10:55N 34°41' E 135°12'0 0.0
2017-Oct-07 10:19N 34°41' E 135°12'0 0.0
2017-Oct-07 09:55N 34°41' E 135°12'0 0.0
2017-Oct-07 09:25N 34°41' E 135°12'0 0.0
2017-Oct-07 08:55N 34°41' E 135°12'0 0.0
2017-Oct-07 08:19N 34°41' E 135°12'0 0.0
2017-Oct-07 07:55N 34°41' E 135°12'0 0.0
2017-Oct-07 07:01N 34°41' E 135°12'0 0.0
2017-Oct-07 06:55N 34°41' E 135°12'0 0.0
2017-Oct-07 06:19N 34°41' E 135°12'0 0.0
2017-Oct-07 05:55N 34°41' E 135°12'0 0.0
2017-Oct-07 05:19N 34°41' E 135°12'0 0.0
2017-Oct-07 04:43N 34°41' E 135°12'0 0.0
2017-Oct-07 04:25N 34°41' E 135°12'0 0.0
2017-Oct-07 03:55N 34°41' E 135°12'0 0.0
2017-Oct-07 03:25N 34°41' E 135°12'0 0.0
2017-Oct-07 02:55N 34°41' E 135°12'0 0.0
2017-Oct-07 02:25N 34°41' E 135°12'0 0.0
2017-Oct-07 01:55N 34°41' E 135°12'0 0.0
2017-Oct-07 01:19N 34°41' E 135°12'0 0.0
2017-Oct-07 00:55N 34°41' E 135°12'0 0.0
2017-Oct-07 00:25N 34°41' E 135°12'0 0.0
2017-Oct-06 23:55N 34°41' E 135°12'0 0.0
2017-Oct-06 23:25N 34°41' E 135°12'0 0.0
2017-Oct-06 22:55N 34°41' E 135°12'0 0.0
2017-Oct-06 22:19N 34°41' E 135°12'0 0.0
2017-Oct-06 21:49N 34°41' E 135°12'0 0.0
2017-Oct-06 21:19N 34°41' E 135°12'0 0.0
2017-Oct-06 20:49N 34°41' E 135°12'0 0.0
2017-Oct-06 20:25N 34°41' E 135°12'0 0.0
2017-Oct-06 19:55N 34°41' E 135°12'0 0.0
2017-Oct-06 19:25N 34°41' E 135°12'0 0.0
2017-Oct-06 18:55N 34°41' E 135°12'0 0.0
2017-Oct-06 18:25N 34°41' E 135°12'0 0.0
2017-Oct-06 17:49N 34°41' E 135°12'0 0.0
2017-Oct-06 17:25N 34°41' E 135°12'0 0.0
2017-Oct-06 16:55N 34°41' E 135°12'0 0.0
2017-Oct-06 16:28N 34°41' E 135°12'0 0.0
2017-Oct-06 15:58N 34°41' E 135°12'0 0.0
2017-Oct-06 15:28N 34°41' E 135°12'0 0.0
2017-Oct-06 14:58N 34°41' E 135°12'0 0.0
2017-Oct-06 14:28N 34°41' E 135°12'0 0.0
2017-Oct-06 13:58N 34°41' E 135°12'0 0.0
2017-Oct-06 13:22N 34°41' E 135°12'0 0.0
2017-Oct-06 12:52N 34°41' E 135°12'0 0.0
2017-Oct-06 12:28N 34°41' E 135°12'0 0.0
2017-Oct-06 11:58N 34°41' E 135°12'0 0.0
2017-Oct-06 11:28N 34°41' E 135°12'0 0.0
2017-Oct-06 10:58N 34°41' E 135°12'0 0.0
2017-Oct-06 10:28N 34°41' E 135°12'0 0.0
2017-Oct-06 09:58N 34°41' E 135°12'0 0.0
2017-Oct-06 09:28N 34°41' E 135°12'0 0.0
2017-Oct-06 08:58N 34°41' E 135°12'1 3.2
2017-Oct-06 08:31N 34°40' E 135°12'510.8
2017-Oct-06 08:01N 34°34' E 135°11'510.1
2017-Oct-06 07:31N 34°29' E 135°10'  

Dump ship's entire track history